createdAt,value
2022-10-12T00:01:07.123Z,7.02
2022-10-12T00:03:55.364Z,6.99
2022-10-12T00:06:37.363Z,6.96
2022-10-12T00:09:24.383Z,6.92
2022-10-12T00:11:57.440Z,6.87
2022-10-12T00:14:44.363Z,6.87
2022-10-12T00:17:17.444Z,6.86
2022-10-12T00:20:04.340Z,6.83
2022-10-12T00:22:45.411Z,6.84
2022-10-12T00:25:39.365Z,6.85
2022-10-12T00:28:27.402Z,6.89
2022-10-12T00:31:00.470Z,6.92
2022-10-12T00:33:48.336Z,6.87
2022-10-12T00:36:25.456Z,6.85
2022-10-12T00:39:14.381Z,6.85
2022-10-12T00:41:57.357Z,6.85
2022-10-12T00:45:00.389Z,6.85
2022-10-12T00:48:02.386Z,6.90
2022-10-12T00:50:51.362Z,6.93
2022-10-12T00:53:31.708Z,6.95
2022-10-12T00:56:25.410Z,6.91
2022-10-12T00:58:59.445Z,6.87
2022-10-12T01:01:46.389Z,6.83
2022-10-12T01:04:21.471Z,6.85
2022-10-12T01:07:13.409Z,6.85
2022-10-12T01:09:55.360Z,6.84
2022-10-12T01:12:45.360Z,6.82
2022-10-12T01:15:19.445Z,6.80
2022-10-12T01:18:17.361Z,6.80
2022-10-12T01:21:22.404Z,6.80
2022-10-12T01:24:37.359Z,6.75
2022-10-12T01:27:42.406Z,6.73
2022-10-12T01:30:22.564Z,6.71
2022-10-12T01:33:24.407Z,6.70
2022-10-12T01:36:19.403Z,6.66
2022-10-12T01:39:17.366Z,6.61
2022-10-12T01:42:02.393Z,6.58
2022-10-12T01:44:56.414Z,6.54
2022-10-12T01:47:46.394Z,6.50
2022-10-12T01:50:22.483Z,6.48
2022-10-12T01:53:27.399Z,6.43
2022-10-12T01:56:06.465Z,6.41
2022-10-12T01:59:15.442Z,6.37
2022-10-12T02:02:02.409Z,6.31
2022-10-12T02:05:13.410Z,6.23
2022-10-12T02:08:13.411Z,6.13
2022-10-12T02:11:31.405Z,6.06
2022-10-12T02:14:23.410Z,6.05
2022-10-12T02:17:07.400Z,6.06
2022-10-12T02:20:04.408Z,6.05
2022-10-12T02:22:49.410Z,6.04
2022-10-12T02:25:44.416Z,6.03
2022-10-12T02:28:40.448Z,6.04
2022-10-12T02:32:00.395Z,6.02
2022-10-12T02:34:54.421Z,6.02
2022-10-12T02:37:37.619Z,6.00
2022-10-12T02:40:45.411Z,5.97
2022-10-12T02:43:27.449Z,5.94
2022-10-12T02:46:16.394Z,5.91
2022-10-12T02:48:53.499Z,5.84
2022-10-12T02:51:42.394Z,5.75
2022-10-12T02:54:15.470Z,5.68
2022-10-12T02:57:02.421Z,5.67
2022-10-12T02:59:35.470Z,5.67
2022-10-12T03:02:22.408Z,5.62
2022-10-12T03:04:55.503Z,5.55
2022-10-12T03:07:42.417Z,5.47
2022-10-12T03:10:15.463Z,5.39
2022-10-12T03:13:02.400Z,5.34
2022-10-12T03:15:35.465Z,5.28
2022-10-12T03:18:22.404Z,5.22
2022-10-12T03:20:55.479Z,5.15
2022-10-12T03:23:49.407Z,5.11
2022-10-12T03:26:36.408Z,5.03
2022-10-12T03:29:09.477Z,4.98
2022-10-12T03:31:56.408Z,4.92
2022-10-12T03:34:29.542Z,4.86
2022-10-12T03:37:16.406Z,4.80
2022-10-12T03:39:49.636Z,4.77
2022-10-12T03:42:36.395Z,4.74
2022-10-12T03:45:09.897Z,4.71
2022-10-12T03:47:58.973Z,4.62
2022-10-12T03:50:35.073Z,4.59
2022-10-12T03:53:21.433Z,4.56
2022-10-12T03:55:57.473Z,4.55
2022-10-12T03:58:44.426Z,4.55
2022-10-12T04:01:17.509Z,4.55
2022-10-12T04:04:04.428Z,4.53
2022-10-12T04:06:37.554Z,4.48
2022-10-12T04:09:24.439Z,4.48
2022-10-12T04:12:12.428Z,4.42
2022-10-12T04:14:59.422Z,4.42
2022-10-12T04:17:39.785Z,4.37
2022-10-12T04:20:33.407Z,4.32
2022-10-12T04:23:27.444Z,4.32
2022-10-12T04:26:15.430Z,4.33
2022-10-12T04:28:51.638Z,4.32
2022-10-12T04:31:38.437Z,4.31
2022-10-12T04:34:18.429Z,4.30
2022-10-12T04:37:12.437Z,4.25
2022-10-12T04:39:59.429Z,4.23
2022-10-12T04:42:35.548Z,4.24
2022-10-12T04:45:22.434Z,4.22
2022-10-12T04:47:56.626Z,4.21
2022-10-12T04:50:43.449Z,4.21
2022-10-12T04:53:16.503Z,4.21
2022-10-12T04:56:03.456Z,4.18
2022-10-12T04:58:43.432Z,4.15
2022-10-12T05:01:30.483Z,4.11
2022-10-12T05:04:03.565Z,4.16
2022-10-12T05:06:50.441Z,4.17
2022-10-12T05:09:30.454Z,4.12
2022-10-12T05:12:24.437Z,4.09
2022-10-12T05:15:11.464Z,4.07
2022-10-12T05:17:44.516Z,4.04
2022-10-12T05:20:31.447Z,4.06
2022-10-12T05:23:05.548Z,4.05
2022-10-12T05:25:52.460Z,4.02
2022-10-12T05:28:25.611Z,4.04
2022-10-12T05:31:12.436Z,4.06
2022-10-12T05:33:52.464Z,4.06
2022-10-12T05:36:46.474Z,4.07
2022-10-12T05:39:40.448Z,4.15
2022-10-12T05:42:27.462Z,4.23
2022-10-12T05:45:00.577Z,4.30
2022-10-12T05:47:47.473Z,4.34
2022-10-12T05:50:27.466Z,4.43
2022-10-12T05:53:21.464Z,4.56
2022-10-12T05:56:15.451Z,4.69
2022-10-12T05:59:02.454Z,4.82
2022-10-12T06:01:35.761Z,4.92
2022-10-12T06:04:23.471Z,5.03
2022-10-12T06:06:56.608Z,5.14
2022-10-12T06:09:46.466Z,5.26
2022-10-12T06:12:19.725Z,5.38
2022-10-12T06:15:06.480Z,5.51
2022-10-12T06:17:46.486Z,5.63
2022-10-12T06:20:33.492Z,5.73
2022-10-12T06:23:06.625Z,5.82
2022-10-12T06:26:01.491Z,5.88
2022-10-12T06:28:48.564Z,5.88
2022-10-12T06:31:21.555Z,5.89
2022-10-12T06:34:08.501Z,5.87
2022-10-12T06:36:41.645Z,5.86
2022-10-12T06:39:28.493Z,5.88
2022-10-12T06:42:01.685Z,5.96
2022-10-12T06:44:48.481Z,6.05
2022-10-12T06:47:21.577Z,6.16
2022-10-12T06:50:08.477Z,6.25
2022-10-12T06:52:43.584Z,6.36
2022-10-12T06:55:30.484Z,6.52
2022-10-12T06:58:03.579Z,6.64
2022-10-12T07:00:50.509Z,6.72
2022-10-12T07:03:30.492Z,6.81
2022-10-12T07:06:20.622Z,6.84
2022-10-12T07:09:00.503Z,6.87
2022-10-12T07:11:50.508Z,6.87
2022-10-12T07:14:30.489Z,6.90
2022-10-12T07:17:24.487Z,6.90
2022-10-12T07:20:19.551Z,6.91
2022-10-12T07:23:13.555Z,6.93
2022-10-12T07:26:08.510Z,6.98
2022-10-12T07:28:56.967Z,7.04
2022-10-12T07:31:37.555Z,7.11
2022-10-12T07:34:31.556Z,7.20
2022-10-12T07:37:25.651Z,7.27
2022-10-12T07:40:19.554Z,7.41
2022-10-12T07:43:15.823Z,7.55
2022-10-12T07:45:56.562Z,7.65
2022-10-12T07:48:49.717Z,7.80
2022-10-12T07:51:30.533Z,7.90
2022-10-12T07:54:29.148Z,7.98
2022-10-12T07:57:16.530Z,8.08
2022-10-12T07:59:49.580Z,8.19
2022-10-12T08:02:36.501Z,8.28
2022-10-12T08:05:09.695Z,8.37
2022-10-12T08:07:59.555Z,8.44
2022-10-12T08:10:32.615Z,8.55
2022-10-12T08:13:22.518Z,8.66
2022-10-12T08:15:56.618Z,8.79
2022-10-12T08:18:43.555Z,8.86
2022-10-12T08:21:18.710Z,8.96
2022-10-12T08:24:15.563Z,9.05
2022-10-12T08:27:09.558Z,9.15
2022-10-12T08:29:56.575Z,9.27
2022-10-12T08:32:36.571Z,9.37
2022-10-12T08:35:30.509Z,9.46
2022-10-12T08:38:25.557Z,9.56
2022-10-12T08:41:33.583Z,9.66
2022-10-12T08:44:27.651Z,9.78
2022-10-12T08:47:41.969Z,9.88
2022-10-12T08:50:24.678Z,10.00
2022-10-12T08:53:18.621Z,10.11
2022-10-12T08:56:00.587Z,10.17
2022-10-12T08:58:47.562Z,10.21
2022-10-12T09:01:58.709Z,10.27
2022-10-12T09:05:00.591Z,10.31
2022-10-12T09:07:44.591Z,10.36
2022-10-12T09:11:08.629Z,10.45
2022-10-12T09:14:11.558Z,10.50
2022-10-12T09:16:49.679Z,10.51
2022-10-12T09:19:44.585Z,10.53
2022-10-12T09:22:32.571Z,10.59
2022-10-12T09:25:28.577Z,10.62
2022-10-12T09:28:52.593Z,10.60
2022-10-12T09:31:54.590Z,10.62
2022-10-12T09:34:30.680Z,10.66
2022-10-12T09:37:32.636Z,10.65
2022-10-12T09:40:06.668Z,10.68
2022-10-12T09:42:53.558Z,10.65
2022-10-12T09:45:35.578Z,10.64
2022-10-12T09:48:29.585Z,10.61
2022-10-12T09:51:08.681Z,10.58
2022-10-12T09:53:57.808Z,10.55
2022-10-12T09:56:33.694Z,10.62
2022-10-12T09:59:38.581Z,10.63
2022-10-12T10:02:14.693Z,10.62
2022-10-12T10:05:01.560Z,10.62
2022-10-12T10:07:40.688Z,10.74
2022-10-12T10:10:31.822Z,10.76
2022-10-12T10:13:06.692Z,10.77
2022-10-12T10:15:56.631Z,10.78
2022-10-12T10:18:39.698Z,10.80
2022-10-12T10:21:41.577Z,10.74
2022-10-12T10:24:31.699Z,10.71
2022-10-12T10:27:36.628Z,10.69
2022-10-12T10:30:33.890Z,10.69
2022-10-12T10:33:26.720Z,10.70
2022-10-12T10:36:30.109Z,10.72
2022-10-12T10:39:27.577Z,10.71
2022-10-12T10:42:01.689Z,10.73
2022-10-12T10:44:57.665Z,10.69
2022-10-12T10:47:37.594Z,10.70
2022-10-12T10:50:51.579Z,10.70
2022-10-12T10:53:37.656Z,10.72
2022-10-12T10:56:34.638Z,10.69
2022-10-12T10:59:27.658Z,10.73
2022-10-12T11:02:06.801Z,10.73
2022-10-12T11:05:22.635Z,10.75
2022-10-12T11:08:09.587Z,10.77
2022-10-12T11:11:09.596Z,10.75
2022-10-12T11:13:46.705Z,10.74
2022-10-12T11:16:48.647Z,10.74
2022-10-12T11:19:43.652Z,10.73
2022-10-12T11:22:46.648Z,10.72
2022-10-12T11:25:49.272Z,10.73
2022-10-12T11:28:46.720Z,10.70
2022-10-12T11:31:44.627Z,10.70
2022-10-12T11:34:26.095Z,10.70
2022-10-12T11:37:21.662Z,10.69
2022-10-12T11:40:05.652Z,10.69
2022-10-12T11:42:55.710Z,10.76
2022-10-12T11:45:40.673Z,10.77
2022-10-12T11:48:35.657Z,10.77
2022-10-12T11:51:17.656Z,10.79
2022-10-12T11:54:16.137Z,10.81
2022-10-12T11:57:02.623Z,10.81
2022-10-12T12:00:04.687Z,10.81
2022-10-12T12:03:34.699Z,10.82
2022-10-12T12:06:41.662Z,10.83
2022-10-12T12:09:50.342Z,10.83
2022-10-12T12:12:44.678Z,10.80
2022-10-12T12:15:31.659Z,10.80
2022-10-12T12:18:18.732Z,10.80
2022-10-12T12:21:11.758Z,10.84
2022-10-12T12:23:49.697Z,10.84
2022-10-12T12:26:37.656Z,10.82
2022-10-12T12:29:22.754Z,10.82
2022-10-12T12:32:09.667Z,10.85
2022-10-12T12:34:42.866Z,10.89
2022-10-12T12:37:35.702Z,10.89
2022-10-12T12:40:19.663Z,10.87
2022-10-12T12:43:41.704Z,10.89
2022-10-12T12:46:25.659Z,10.89
2022-10-12T12:49:39.666Z,10.86
2022-10-12T12:52:43.166Z,10.84
2022-10-12T12:55:21.741Z,10.83
2022-10-12T12:58:26.665Z,10.83
2022-10-12T13:01:51.736Z,10.81
2022-10-12T13:05:24.678Z,10.79
2022-10-12T13:08:33.703Z,10.78
2022-10-12T13:11:09.748Z,10.80
2022-10-12T13:14:27.660Z,10.80
2022-10-12T13:17:32.285Z,10.79
2022-10-12T13:20:39.699Z,10.78
2022-10-12T13:23:30.679Z,10.78
2022-10-12T13:26:15.686Z,10.79
2022-10-12T13:29:03.707Z,10.78
2022-10-12T13:31:51.751Z,10.77
2022-10-12T13:34:44.659Z,10.77
2022-10-12T13:37:20.732Z,10.73
2022-10-12T13:40:07.669Z,10.74
2022-10-12T13:42:41.751Z,10.74
2022-10-12T13:45:28.681Z,10.70
2022-10-12T13:48:10.799Z,10.68
2022-10-12T13:51:02.700Z,10.64
2022-10-12T13:53:45.726Z,10.65
2022-10-12T13:56:36.700Z,10.65
2022-10-12T13:59:12.570Z,10.65
2022-10-12T14:02:08.690Z,10.63
2022-10-12T14:04:48.705Z,10.63
2022-10-12T14:07:54.694Z,10.62
2022-10-12T14:10:50.704Z,10.58
2022-10-12T14:13:40.683Z,10.57
2022-10-12T14:16:13.772Z,10.53
2022-10-12T14:19:00.707Z,10.50
2022-10-12T14:21:37.025Z,10.53
2022-10-12T14:24:32.711Z,10.50
2022-10-12T14:27:37.679Z,10.49
2022-10-12T14:30:28.697Z,10.46
2022-10-12T14:33:15.788Z,10.45
2022-10-12T14:36:37.694Z,10.43
2022-10-12T14:39:20.824Z,10.39
2022-10-12T14:42:10.703Z,10.36
2022-10-12T14:44:56.696Z,10.31
2022-10-12T14:47:53.721Z,10.27
2022-10-12T14:50:40.691Z,10.24
2022-10-12T14:53:17.775Z,10.25
2022-10-12T14:56:04.716Z,10.22
2022-10-12T14:58:38.021Z,10.21
2022-10-12T15:01:24.788Z,10.18
2022-10-12T15:03:57.773Z,10.16
2022-10-12T15:06:49.811Z,10.11
2022-10-12T15:09:30.718Z,10.09
2022-10-12T15:12:23.709Z,10.03
2022-10-12T15:15:05.736Z,9.99
2022-10-12T15:17:59.735Z,9.93
2022-10-12T15:20:55.738Z,9.89
2022-10-12T15:23:49.783Z,9.83
2022-10-12T15:26:43.739Z,9.77
2022-10-12T15:29:30.704Z,9.71
2022-10-12T15:32:10.716Z,9.69
2022-10-12T15:34:58.721Z,9.62
2022-10-12T15:37:32.112Z,9.55
2022-10-12T15:40:18.728Z,9.49
2022-10-12T15:42:51.797Z,9.41
2022-10-12T15:45:41.703Z,9.32
2022-10-12T15:48:15.822Z,9.23
2022-10-12T15:51:02.722Z,9.15
2022-10-12T15:53:35.797Z,9.07
2022-10-12T15:56:23.713Z,9.02
2022-10-12T15:58:56.812Z,8.94
2022-10-12T16:01:44.733Z,8.91
2022-10-12T16:04:20.797Z,8.89
2022-10-12T16:07:08.746Z,8.88
2022-10-12T16:09:41.836Z,8.83
2022-10-12T16:12:28.737Z,8.76
2022-10-12T16:15:01.810Z,8.70
2022-10-12T16:17:48.729Z,8.66
2022-10-12T16:20:29.776Z,8.60
2022-10-12T16:23:28.726Z,8.59
2022-10-12T16:26:25.771Z,8.54
2022-10-12T16:29:15.518Z,8.49
2022-10-12T16:31:48.816Z,8.46
2022-10-12T16:34:36.758Z,8.39
2022-10-12T16:37:16.754Z,8.36
2022-10-12T16:40:03.746Z,8.34
2022-10-12T16:42:36.893Z,8.32
2022-10-12T16:45:23.765Z,8.30
2022-10-12T16:47:56.823Z,8.24
2022-10-12T16:50:46.755Z,8.21
2022-10-12T16:53:19.854Z,8.17
2022-10-12T16:56:06.767Z,8.13
2022-10-12T16:58:39.833Z,8.07
2022-10-12T17:01:26.779Z,8.00
2022-10-12T17:04:08.778Z,7.93
2022-10-12T17:07:02.748Z,7.83
2022-10-12T17:09:56.742Z,7.76
2022-10-12T17:12:43.796Z,7.68
2022-10-12T17:15:16.868Z,7.65
2022-10-12T17:18:04.756Z,7.61
2022-10-12T17:20:37.888Z,7.57
2022-10-12T17:23:24.759Z,7.49
2022-10-12T17:26:05.848Z,7.43
2022-10-12T17:28:52.828Z,7.39
2022-10-12T17:31:26.295Z,7.38
2022-10-12T17:34:13.756Z,7.33
2022-10-12T17:36:46.908Z,7.31
2022-10-12T17:39:36.816Z,7.26
2022-10-12T17:42:18.209Z,7.23
2022-10-12T17:45:11.823Z,7.20
2022-10-12T17:47:58.768Z,7.19
2022-10-12T17:50:31.852Z,7.17
2022-10-12T17:53:18.783Z,7.14
2022-10-12T17:55:54.544Z,7.07
2022-10-12T17:58:44.775Z,7.03
2022-10-12T18:01:21.108Z,7.02
2022-10-12T18:04:09.805Z,6.94
2022-10-12T18:06:42.918Z,6.90
2022-10-12T18:09:29.827Z,6.89
2022-10-12T18:12:02.866Z,6.88
2022-10-12T18:14:49.897Z,6.87
2022-10-12T18:17:22.942Z,6.82
2022-10-12T18:20:10.807Z,6.79
2022-10-12T18:22:43.872Z,6.73
2022-10-12T18:25:37.816Z,6.64
2022-10-12T18:28:31.849Z,6.56
2022-10-12T18:31:24.808Z,6.46
2022-10-12T18:33:58.914Z,6.41
2022-10-12T18:36:47.807Z,6.40
2022-10-12T18:39:27.825Z,6.36
2022-10-12T18:42:21.829Z,6.32
2022-10-12T18:45:15.791Z,6.25
2022-10-12T18:48:02.790Z,6.18
2022-10-12T18:50:42.812Z,6.09
2022-10-12T18:53:36.783Z,6.03
2022-10-12T18:56:24.814Z,5.95
2022-10-12T18:58:57.951Z,5.92
2022-10-12T19:01:44.802Z,5.89
2022-10-12T19:04:25.824Z,5.81
2022-10-12T19:07:12.832Z,5.75
2022-10-12T19:09:52.912Z,5.69
2022-10-12T19:12:46.810Z,5.68
2022-10-12T19:15:35.757Z,5.67
2022-10-12T19:18:09.069Z,5.64
2022-10-12T19:20:55.824Z,5.59
2022-10-12T19:23:28.876Z,5.56
2022-10-12T19:26:22.817Z,5.57
2022-10-12T19:28:58.453Z,5.57
2022-10-12T19:31:48.812Z,5.53
2022-10-12T19:34:24.113Z,5.47
2022-10-12T19:37:10.817Z,5.43
2022-10-12T19:39:53.800Z,5.41
2022-10-12T19:42:47.848Z,5.39
2022-10-12T19:45:34.842Z,5.36
2022-10-12T19:48:07.948Z,5.32
2022-10-12T19:50:54.818Z,5.31
2022-10-12T19:53:28.148Z,5.28
2022-10-12T19:56:17.855Z,5.27
2022-10-12T19:58:52.931Z,5.21
2022-10-12T20:01:44.823Z,5.13
2022-10-12T20:04:17.984Z,5.09
2022-10-12T20:07:04.839Z,5.07
2022-10-12T20:09:37.919Z,5.07
2022-10-12T20:12:24.827Z,5.00
2022-10-12T20:14:57.918Z,4.97
2022-10-12T20:17:45.843Z,4.93
2022-10-12T20:20:25.880Z,4.93
2022-10-12T20:23:19.833Z,4.87
2022-10-12T20:26:13.841Z,4.81
2022-10-12T20:29:01.850Z,4.82
2022-10-12T20:31:35.055Z,4.81
2022-10-12T20:34:21.868Z,4.84
2022-10-12T20:36:54.940Z,4.86
2022-10-12T20:39:41.851Z,4.84
2022-10-12T20:42:19.192Z,4.82
2022-10-12T20:45:07.828Z,4.77
2022-10-12T20:47:40.958Z,4.73
2022-10-12T20:50:27.836Z,4.70
2022-10-12T20:53:00.936Z,4.66
2022-10-12T20:55:47.834Z,4.65
2022-10-12T20:58:24.370Z,4.65
2022-10-12T21:01:16.909Z,4.60
2022-10-12T21:03:49.996Z,4.60
2022-10-12T21:06:36.874Z,4.62
2022-10-12T21:09:11.938Z,4.60
2022-10-12T21:11:58.879Z,4.55
2022-10-12T21:14:31.939Z,4.49
2022-10-12T21:17:18.838Z,4.46
2022-10-12T21:19:53.718Z,4.45
2022-10-12T21:22:33.845Z,4.45
2022-10-12T21:25:20.879Z,4.42
2022-10-12T21:28:07.883Z,4.35
2022-10-12T21:30:47.874Z,4.32
2022-10-12T21:33:41.850Z,4.34
2022-10-12T21:36:30.867Z,4.35
2022-10-12T21:39:04.950Z,4.32
2022-10-12T21:41:51.867Z,4.35
2022-10-12T21:44:24.993Z,4.33
2022-10-12T21:47:15.992Z,4.27
2022-10-12T21:49:50.960Z,4.26
2022-10-12T21:52:37.894Z,4.28
2022-10-12T21:55:10.957Z,4.26
2022-10-12T21:57:57.874Z,4.26
2022-10-12T22:00:31.006Z,4.21
2022-10-12T22:03:17.862Z,4.15
2022-10-12T22:05:51.963Z,4.10
2022-10-12T22:08:31.863Z,4.04
2022-10-12T22:11:15.067Z,3.98
2022-10-12T22:13:55.911Z,3.96
2022-10-12T22:16:36.793Z,3.91
2022-10-12T22:19:21.893Z,3.83
2022-10-12T22:22:01.946Z,3.83
2022-10-12T22:24:41.902Z,3.83
2022-10-12T22:27:28.891Z,3.83
2022-10-12T22:30:15.917Z,3.80
2022-10-12T22:32:49.038Z,3.79
2022-10-12T22:35:35.873Z,3.74
2022-10-12T22:38:09.593Z,3.73
2022-10-12T22:41:07.888Z,3.73
2022-10-12T22:43:40.967Z,3.71
2022-10-12T22:46:29.898Z,3.67
2022-10-12T22:49:04.207Z,3.64
2022-10-12T22:51:51.104Z,3.59
2022-10-12T22:54:23.959Z,3.61
2022-10-12T22:57:10.895Z,3.64
2022-10-12T22:59:43.965Z,3.61
2022-10-12T23:02:30.929Z,3.58
2022-10-12T23:05:03.985Z,3.52
2022-10-12T23:07:50.905Z,3.49
2022-10-12T23:10:24.096Z,3.45
2022-10-12T23:13:10.916Z,3.42
2022-10-12T23:15:44.044Z,3.39
2022-10-12T23:18:30.897Z,3.41
2022-10-12T23:21:19.918Z,3.40
2022-10-12T23:23:53.159Z,3.37
2022-10-12T23:26:40.914Z,3.35
2022-10-12T23:29:34.937Z,3.35
2022-10-12T23:32:22.925Z,3.30
2022-10-12T23:34:56.001Z,3.26
2022-10-12T23:37:44.264Z,3.25
2022-10-12T23:40:18.776Z,3.25
2022-10-12T23:43:05.926Z,3.21
2022-10-12T23:45:38.986Z,3.21
2022-10-12T23:48:25.926Z,3.22
2022-10-12T23:50:59.997Z,3.18
2022-10-12T23:53:48.934Z,3.17
2022-10-12T23:56:28.917Z,3.16
2022-10-12T23:59:15.923Z,3.13
